Hodgen, Oklahoma
Current Conditions -  °F | °C
As of 8:35 PM on Wednesday 17 Dec 2014 (Local Time) from KRKR Reporting Station
Moderate Rain Moderate Rain  
Wind Chill: 36°   Ceiling: 5500
Heat Index: 36°   Visibility: 4mi
Dew Point: 35°   Wind: 3mph
Humidity: 94%   Direction: 20°NNE
Pressure: 30.26"   Gusts: NA
Location:  34.84°N, 94.63°W
Report Text: KRKR 180235Z AUTO 02003KT 4SM RA OVC055 02/02 A3026 RMK AO2 P0007 T00240015
Loading
Personal Weather Stations






























Interactive Weather Map New forecast layout! Learn more

10-Day Weather Forecast

Advertisements
Track Severe Weather on mobile